Time;durP1;ratioP1;P1;durP2;ratioP2;P2;SDS_P1;SDS_P2;PMS_P1;PMS_P2;Temp;Humidity;BMP_temperature;BMP_pressure;BME280_temperature;BME280_humidity;BME280_pressure;Samples;Min_cycle;Max_cycle;Signal;HPM_P1;HPM_P2
2023/10/10 00:01:05;;;;;;;1.10;0.67;;;;;;;14.30;67.94;101710.22;5023597;27;97010;-76
2023/10/10 00:03:32;;;;;;;2.13;1.00;;;;;;;14.32;67.89;101718.81;5039272;27;98585;-76
2023/10/10 00:05:59;;;;;;;3.70;1.10;;;;;;;14.29;67.89;101712.25;5025998;27;97617;-76
2023/10/10 00:08:36;;;;;;;4.07;0.70;;;;;;;14.30;67.76;101719.31;5025281;27;96946;-76
2023/10/10 00:11:14;;;;;;;1.93;0.63;;;;;;;14.28;67.82;101712.75;5025870;27;97296;-76
2023/10/10 00:13:53;;;;;;;2.93;0.97;;;;;;;14.26;67.92;101710.50;5020785;27;99505;-76
2023/10/10 00:16:25;;;;;;;0.93;0.80;;;;;;;14.26;67.91;101704.16;5021683;27;100313;-76
2023/10/10 00:18:50;;;;;;;1.00;0.70;;;;;;;14.25;68.03;101711.78;5039046;27;98354;-76
2023/10/10 00:21:23;;;;;;;1.33;0.83;;;;;;;14.27;68.05;101711.25;5039809;27;97086;-76
2023/10/10 00:23:53;;;;;;;1.93;0.90;;;;;;;14.23;68.09;101717.13;5023275;27;100503;-76
2023/10/10 00:26:22;;;;;;;1.93;0.87;;;;;;;14.28;67.98;101707.94;5025078;27;97371;-76
2023/10/10 00:28:54;;;;;;;2.03;0.73;;;;;;;14.26;68.04;101706.94;5024084;27;97063;-76
2023/10/10 00:31:28;;;;;;;2.20;1.00;;;;;;;14.28;68.00;101724.66;5025826;27;97328;-76
2023/10/10 00:33:55;;;;;;;1.87;0.70;;;;;;;14.28;67.92;101701.63;5024095;27;97193;-76
2023/10/10 00:44:18;;;;;;;0.83;0.50;;;;;;;14.25;68.05;101708.25;5026271;27;97995;-76
2023/10/10 00:46:47;;;;;;;4.50;0.93;;;;;;;14.28;68.04;101707.19;5021677;27;98819;-76
2023/10/10 00:49:14;;;;;;;1.27;1.00;;;;;;;14.27;68.14;101703.66;5025420;27;97097;-76
2023/10/10 00:51:41;;;;;;;2.60;0.80;;;;;;;14.28;67.94;101688.47;5025663;27;97021;-75
2023/10/10 00:54:26;;;;;;;2.57;0.90;;;;;;;14.30;68.12;101690.75;5025123;27;97433;-76
2023/10/10 00:56:56;;;;;;;1.63;0.90;;;;;;;14.31;68.18;101704.16;5025032;27;98346;-75
2023/10/10 01:02:20;;;;;;;3.23;1.20;;;;;;;14.32;68.19;101702.13;5005034;27;96992;-76
2023/10/10 01:07:19;;;;;;;2.00;1.10;;;;;;;14.31;68.04;101687.44;5025480;27;97082;-75
2023/10/10 01:10:18;;;;;;;1.77;1.10;;;;;;;14.32;68.02;101696.56;5025114;27;97217;-75
2023/10/10 01:12:39;;;;;;;3.43;1.47;;;;;;;14.33;68.17;101692.47;5019710;27;97500;-76
2023/10/10 01:15:08;;;;;;;1.60;1.50;;;;;;;14.34;68.15;101683.59;5025425;27;97760;-75
2023/10/10 01:17:34;;;;;;;2.70;1.80;;;;;;;14.34;68.24;101697.53;5023144;27;98988;-73
2023/10/10 01:20:25;;;;;;;2.30;1.80;;;;;;;14.33;68.07;101706.41;5026629;27;96907;-76
2023/10/10 01:22:54;;;;;;;4.23;1.83;;;;;;;14.31;68.20;101695.78;5023783;27;98230;-76
2023/10/10 01:28:13;;;;;;;3.63;2.30;;;;;;;14.30;68.21;101699.84;5023466;27;97185;-75
2023/10/10 01:34:08;;;;;;;4.00;2.50;;;;;;;14.30;68.18;101683.13;5024380;27;97802;-76
2023/10/10 01:36:16;;;;;;;3.37;2.60;;;;;;;14.30;68.32;101682.41;5013927;27;97087;-75
2023/10/10 01:38:44;;;;;;;4.00;2.13;;;;;;;14.31;68.18;101681.88;5024685;27;98492;-75
2023/10/10 01:41:16;;;;;;;3.03;2.47;;;;;;;14.33;68.20;101675.78;5023035;27;97007;-76
2023/10/10 01:43:46;;;;;;;4.10;3.00;;;;;;;14.32;68.34;101675.00;5022834;27;97034;-75
2023/10/10 01:46:35;;;;;;;3.70;1.90;;;;;;;14.32;68.21;101683.38;5024042;27;99886;-76
2023/10/10 01:49:01;;;;;;;4.00;2.73;;;;;;;14.31;68.30;101673.53;5019956;27;99583;-75
2023/10/10 01:51:33;;;;;;;4.37;2.60;;;;;;;14.30;68.37;101672.00;5019300;27;97194;-75
2023/10/10 01:53:59;;;;;;;5.33;2.77;;;;;;;14.30;68.27;101671.25;5038906;27;96830;-75
2023/10/10 01:56:27;;;;;;;3.80;2.30;;;;;;;14.31;68.07;101679.09;5019835;27;99642;-76
2023/10/10 01:58:54;;;;;;;3.77;2.33;;;;;;;14.30;68.23;101685.91;5034468;27;100493;-76
2023/10/10 02:01:20;;;;;;;5.93;2.70;;;;;;;14.28;67.99;101676.56;5024564;27;97129;-76
2023/10/10 02:03:47;;;;;;;3.80;2.20;;;;;;;14.28;68.02;101671.00;5024110;27;97485;-75
2023/10/10 02:06:22;;;;;;;4.77;2.20;;;;;;;14.26;68.13;101677.09;5023457;27;97214;-75
2023/10/10 02:08:51;;;;;;;2.90;2.00;;;;;;;14.21;67.94;101683.44;5022728;27;97938;-76
2023/10/10 02:11:20;;;;;;;2.03;1.93;;;;;;;14.21;68.04;101677.16;5023865;27;97828;-76
2023/10/10 02:13:50;;;;;;;2.80;2.20;;;;;;;14.18;67.88;101681.72;5020309;27;97958;-75
2023/10/10 02:16:17;;;;;;;2.67;2.47;;;;;;;14.13;68.02;101676.94;5017317;27;100528;-75
2023/10/10 02:18:51;;;;;;;4.40;1.90;;;;;;;14.14;68.14;101692.38;5021083;27;100932;-76
2023/10/10 02:21:31;;;;;;;1.90;1.80;;;;;;;14.13;68.08;101676.94;5023552;27;96943;-76
2023/10/10 02:24:13;;;;;;;3.67;2.30;;;;;;;14.10;67.91;101680.00;5024549;27;96742;-76
2023/10/10 02:26:38;;;;;;;2.47;2.27;;;;;;;14.10;68.26;101680.00;5021502;27;100732;-76
2023/10/10 02:29:16;;;;;;;4.00;2.00;;;;;;;14.07;67.83;101689.38;5020407;27;100464;-76
2023/10/10 02:31:45;;;;;;;2.17;1.97;;;;;;;14.04;67.91;101677.25;5023750;27;96884;-76
2023/10/10 02:34:11;;;;;;;3.47;2.10;;;;;;;14.00;67.83;101692.66;5022507;27;97726;-76
2023/10/10 02:36:40;;;;;;;2.73;1.70;;;;;;;13.99;67.84;101674.47;5022082;27;97384;-76
2023/10/10 02:39:26;;;;;;;2.30;2.10;;;;;;;13.98;67.98;101675.75;5024440;27;97320;-75
2023/10/10 02:41:59;;;;;;;2.50;2.10;;;;;;;13.97;68.02;101669.44;5016722;27;97368;-75
2023/10/10 02:46:59;;;;;;;2.80;2.30;;;;;;;13.96;67.95;101670.69;5018448;27;97182;-76
2023/10/10 02:51:56;;;;;;;5.67;2.30;;;;;;;13.94;67.86;101664.91;5022325;27;97421;-75
2023/10/10 02:56:56;;;;;;;3.80;2.43;;;;;;;13.92;67.97;101675.78;5019686;27;97367;-75
2023/10/10 02:59:31;;;;;;;3.10;2.17;;;;;;;13.91;68.03;101676.31;5023461;27;96998;-76
2023/10/10 03:01:59;;;;;;;2.40;2.23;;;;;;;13.90;67.85;101677.56;5019119;27;96739;-76
2023/10/10 03:04:52;;;;;;;2.27;2.13;;;;;;;13.89;67.79;101687.16;5020369;27;97257;-75
2023/10/10 03:07:11;;;;;;;1.97;1.87;;;;;;;13.86;67.90;101688.97;5021763;27;97864;-75
2023/10/10 03:09:49;;;;;;;2.70;1.97;;;;;;;13.85;67.67;101679.09;5022617;27;97723;-75
2023/10/10 03:12:17;;;;;;;2.20;1.70;;;;;;;13.82;67.85;101682.91;5020222;27;97177;-75
2023/10/10 03:14:44;;;;;;;5.03;2.10;;;;;;;13.82;67.96;101679.41;5023326;27;97098;-75
2023/10/10 03:17:31;;;;;;;2.67;2.27;;;;;;;13.80;67.90;101679.88;5022522;27;97046;-76
2023/10/10 03:20:13;;;;;;;3.30;1.80;;;;;;;13.80;67.85;101682.66;5019238;27;99644;-76
2023/10/10 03:23:32;;;;;;;3.33;2.00;;;;;;;13.80;67.71;101691.00;5024474;27;97135;-76
2023/10/10 03:25:28;;;;;;;2.17;1.97;;;;;;;13.78;67.92;101682.44;5008530;27;97341;-75
2023/10/10 03:27:55;;;;;;;3.20;1.90;;;;;;;13.78;67.77;101678.91;5022179;27;100608;-75
2023/10/10 03:30:50;;;;;;;2.00;1.77;;;;;;;13.79;67.87;101663.72;5023769;27;100599;-76
2023/10/10 03:33:29;;;;;;;3.10;1.90;;;;;;;13.75;67.78;101664.00;5024720;27;97218;-74
2023/10/10 03:36:05;;;;;;;1.87;1.67;;;;;;;13.77;67.96;101664.25;5025697;27;97151;-76
2023/10/10 03:38:45;;;;;;;2.97;1.80;;;;;;;13.77;67.78;101672.59;5023544;27;99571;-75
2023/10/10 05:25:22;;;;;;;3.97;1.40;;;;;;;14.14;68.25;101652.66;5023654;28;96774;-76
2023/10/10 05:27:51;;;;;;;3.80;1.50;;;;;;;14.13;68.22;101640.75;5020789;28;97167;-76
2023/10/10 05:30:23;;;;;;;1.93;1.30;;;;;;;14.15;68.22;101657.69;5021440;28;98015;-75
2023/10/10 05:33:05;;;;;;;1.50;1.40;;;;;;;14.15;68.18;101645.78;5021227;28;97046;-75
2023/10/10 05:35:32;;;;;;;1.40;1.30;;;;;;;14.15;68.24;101674.38;5022258;28;99811;-76
2023/10/10 05:38:00;;;;;;;5.57;1.90;;;;;;;14.14;68.29;101664.53;5021658;28;97430;-76
2023/10/10 05:40:26;;;;;;;7.30;1.77;;;;;;;14.14;68.22;101666.56;5020032;27;98703;-75
2023/10/10 05:42:51;;;;;;;2.13;1.80;;;;;;;14.15;68.38;101659.72;5020896;28;96957;-74
2023/10/10 05:45:18;;;;;;;1.47;1.37;;;;;;;14.18;68.13;101665.00;5022322;28;97460;-75
2023/10/10 05:47:44;;;;;;;1.43;1.37;;;;;;;14.21;68.35;101668.78;5022195;28;97634;-75
2023/10/10 05:50:10;;;;;;;2.80;1.57;;;;;;;14.22;68.09;101675.84;5019265;27;101056;-76
2023/10/10 05:52:39;;;;;;;1.80;1.70;;;;;;;14.22;68.19;101664.72;5020578;27;97246;-76
2023/10/10 05:55:11;;;;;;;2.00;1.90;;;;;;;14.25;68.25;101672.06;5020154;28;97645;-75
2023/10/10 05:57:37;;;;;;;2.27;2.10;;;;;;;14.26;68.31;101660.38;5020727;28;97829;-75
2023/10/10 06:00:13;;;;;;;2.77;1.87;;;;;;;14.29;68.31;101664.94;5017716;27;99675;-76
2023/10/10 06:02:46;;;;;;;1.87;1.77;;;;;;;14.30;68.32;101671.25;5019839;28;97102;-75
2023/10/10 06:05:15;;;;;;;3.87;1.83;;;;;;;14.32;68.22;101672.22;5019203;27;97217;-76
2023/10/10 06:07:44;;;;;;;3.07;2.00;;;;;;;14.35;68.29;101671.22;5020936;27;97457;-75
2023/10/10 06:10:15;;;;;;;3.20;1.97;;;;;;;14.36;68.39;101664.38;5016760;28;99702;-75
2023/10/10 06:12:42;;;;;;;3.33;2.03;;;;;;;14.39;68.28;101668.88;5020271;28;97389;-76
2023/10/10 06:15:07;;;;;;;3.13;1.90;;;;;;;14.42;68.36;101667.09;5018829;28;97253;-75
2023/10/10 06:17:36;;;;;;;3.50;2.13;;;;;;;14.44;68.38;101661.75;5022124;27;97287;-75
2023/10/10 06:20:02;;;;;;;3.77;2.00;;;;;;;14.48;68.15;101671.34;5019726;28;97062;-75
2023/10/10 06:22:29;;;;;;;3.33;2.23;;;;;;;14.50;68.33;101675.66;5020552;27;97109;-76
2023/10/10 06:24:58;;;;;;;2.30;2.13;;;;;;;14.55;68.34;101685.97;5019632;28;97581;-75
2023/10/10 06:27:36;;;;;;;2.30;2.07;;;;;;;14.58;68.34;101680.13;5021573;28;97402;-76
2023/10/10 06:30:03;;;;;;;4.47;2.23;;;;;;;14.61;68.48;101695.06;5018246;28;99032;-76
2023/10/10 06:32:31;;;;;;;2.20;2.10;;;;;;;14.64;68.37;101675.25;5020055;28;97048;-76
2023/10/10 06:37:44;;;;;;;2.60;1.60;;;;;;;14.68;68.38;101678.53;5018174;28;97593;-75
2023/10/10 06:40:10;;;;;;;2.90;1.77;;;;;;;14.70;68.47;101683.56;5019961;27;96947;-75
2023/10/10 06:42:36;;;;;;;5.63;2.10;;;;;;;14.72;68.62;101687.34;5021176;27;97378;-76
2023/10/10 06:45:08;;;;;;;1.73;1.63;;;;;;;14.76;68.50;101682.22;5018851;28;97323;-75
2023/10/10 06:47:39;;;;;;;1.97;1.87;;;;;;;14.76;68.54;101684.28;5021190;27;97902;-76
2023/10/10 06:50:11;;;;;;;2.47;1.70;;;;;;;14.79;68.76;101683.22;5018610;27;97834;-76
2023/10/10 06:52:43;;;;;;;2.97;1.50;;;;;;;14.80;68.64;101676.38;5021179;28;97151;-76
2023/10/10 06:55:12;;;;;;;1.67;1.57;;;;;;;14.81;68.82;101675.09;5017487;27;97265;-76
2023/10/10 06:57:38;;;;;;;2.53;2.33;;;;;;;14.86;68.50;101685.44;5018234;28;97261;-76
2023/10/10 07:02:47;;;;;;;3.00;1.53;;;;;;;14.87;68.63;101684.19;5018432;28;97617;-76
2023/10/10 07:05:15;;;;;;;1.77;1.67;;;;;;;14.93;68.49;101679.28;5019592;28;96820;-75
2023/10/10 07:07:44;;;;;;;1.80;1.70;;;;;;;14.95;68.60;101680.31;5018381;28;97305;-76
2023/10/10 07:10:09;;;;;;;1.53;1.43;;;;;;;14.97;68.52;101680.56;5018241;28;97472;-75
2023/10/10 07:12:38;;;;;;;1.90;1.60;;;;;;;14.99;68.45;101678.00;5020643;27;97074;-76
2023/10/10 07:15:06;;;;;;;1.90;1.80;;;;;;;15.02;68.59;101684.56;5036319;27;97905;-75
2023/10/10 07:17:32;;;;;;;1.53;1.43;;;;;;;15.03;68.68;101681.25;5020520;28;97134;-76
2023/10/10 07:22:27;;;;;;;2.17;1.60;;;;;;;15.10;68.56;101685.47;5019492;28;97004;-75
2023/10/10 07:25:06;;;;;;;1.77;1.67;;;;;;;15.11;68.56;101693.31;5019638;28;97520;-76
2023/10/10 07:27:32;;;;;;;1.43;1.33;;;;;;;15.17;68.40;101699.56;5017108;28;97863;-76
2023/10/10 07:32:29;;;;;;;2.87;2.67;;;;;;;15.27;68.47;101696.44;5020219;28;97665;-76
2023/10/10 07:34:55;;;;;;;1.70;1.60;;;;;;;15.31;68.30;101696.88;5020723;28;97161;-76
2023/10/10 07:37:27;;;;;;;1.27;1.17;;;;;;;15.34;68.33;101693.06;5035438;27;99736;-76
2023/10/10 07:39:56;;;;;;;2.13;2.03;;;;;;;15.34;68.42;101698.63;5018429;28;100753;-76
2023/10/10 07:42:29;;;;;;;1.60;1.50;;;;;;;15.38;68.24;101710.25;5018617;28;96965;-76
2023/10/10 07:44:56;;;;;;;5.53;1.80;;;;;;;15.39;68.40;101695.03;5020028;27;97070;-76
2023/10/10 07:47:26;;;;;;;2.27;2.00;;;;;;;15.41;68.31;101692.47;5017426;27;97196;-76
2023/10/10 07:49:56;;;;;;;2.00;1.70;;;;;;;15.40;68.25;101696.53;5020945;27;98245;-76
2023/10/10 07:52:22;;;;;;;2.07;1.57;;;;;;;15.39;68.34;101698.59;5017112;28;97113;-76
2023/10/10 07:54:51;;;;;;;1.63;1.53;;;;;;;15.43;68.55;101706.66;5020259;28;97237;-76
2023/10/10 07:57:26;;;;;;;1.50;1.40;;;;;;;15.44;68.32;101685.84;5018550;28;98001;-76
2023/10/10 07:59:55;;;;;;;2.60;2.17;;;;;;;15.49;68.33;101693.38;5017941;28;100610;-76
2023/10/10 08:02:31;;;;;;;2.47;2.30;;;;;;;15.52;68.29;101693.09;5019521;28;97485;-76
2023/10/10 08:05:01;;;;;;;4.20;2.47;;;;;;;15.56;68.25;101681.63;5021243;28;97383;-76
2023/10/10 08:07:28;;;;;;;3.00;2.40;;;;;;;15.61;68.27;101687.13;5019061;28;100786;-76
2023/10/10 08:10:13;;;;;;;3.53;2.90;;;;;;;15.62;68.38;101688.66;5020037;27;97749;-76
2023/10/10 08:12:39;;;;;;;4.40;3.07;;;;;;;15.66;68.35;101691.91;5021370;28;97202;-76
2023/10/10 08:15:20;;;;;;;2.83;2.63;;;;;;;15.69;68.30;101696.44;5021113;28;97026;-76
2023/10/10 08:17:52;;;;;;;3.07;2.80;;;;;;;15.75;68.37;101699.91;5022361;27;100769;-76
2023/10/10 08:20:34;;;;;;;2.90;2.70;;;;;;;15.80;68.15;101701.88;5021533;28;97299;-76
2023/10/10 08:23:01;;;;;;;3.80;3.03;;;;;;;15.83;68.36;101706.38;5024070;28;97025;-76
2023/10/10 08:25:27;;;;;;;2.90;2.67;;;;;;;15.87;68.30;101697.75;5022882;28;97294;-76
2023/10/10 08:27:52;;;;;;;3.40;3.10;;;;;;;15.90;68.36;101697.44;5021342;27;99988;-76
2023/10/10 08:30:17;;;;;;;4.00;3.43;;;;;;;15.94;68.23;101700.66;5021499;28;97297;-76
2023/10/10 08:32:43;;;;;;;6.77;3.37;;;;;;;15.92;68.28;101686.50;5023240;28;97333;-76
2023/10/10 08:35:10;;;;;;;4.80;3.83;;;;;;;15.96;68.34;101708.53;5021927;27;96903;-76
2023/10/10 08:37:36;;;;;;;4.37;3.27;;;;;;;16.02;68.51;101688.91;5022082;28;97422;-76
2023/10/10 08:40:15;;;;;;;4.43;3.60;;;;;;;16.08;68.43;101697.94;5024389;28;97117;-76
2023/10/10 08:42:43;;;;;;;4.53;3.40;;;;;;;16.15;68.26;101695.31;5019637;28;97107;-77
2023/10/10 08:45:22;;;;;;;3.40;3.10;;;;;;;16.21;68.31;101692.41;5020591;28;97219;-76
2023/10/10 08:47:52;;;;;;;3.63;3.33;;;;;;;16.26;68.27;101680.41;5022750;28;98057;-76
2023/10/10 08:50:18;;;;;;;4.20;3.60;;;;;;;16.30;68.08;101689.22;5023930;27;97876;-76
2023/10/10 08:52:43;;;;;;;3.97;3.40;;;;;;;16.34;68.03;101690.44;5020662;28;97211;-76
2023/10/10 08:55:11;;;;;;;8.50;4.03;;;;;;;16.35;68.14;101678.00;5023601;27;97248;-76
2023/10/10 08:57:40;;;;;;;6.17;3.53;;;;;;;16.40;68.08;101676.38;5021203;27;97552;-77
2023/10/10 09:00:17;;;;;;;3.70;3.30;;;;;;;16.39;68.02;101674.88;5020230;27;98163;-76
2023/10/10 09:02:44;;;;;;;5.10;3.33;;;;;;;16.45;68.04;101684.66;5020670;28;97131;-76
2023/10/10 09:05:14;;;;;;;4.70;3.70;;;;;;;16.51;68.11;101687.34;5022983;28;97586;-76
2023/10/10 09:07:43;;;;;;;3.60;3.30;;;;;;;16.53;67.97;101670.81;5020928;28;97435;-76
2023/10/10 09:10:14;;;;;;;3.90;3.60;;;;;;;16.54;67.95;101686.28;5020494;27;99064;-76
2023/10/10 09:13:16;;;;;;;3.80;3.50;;;;;;;16.56;67.99;101697.69;5011109;28;96942;-75
2023/10/10 09:15:34;;;;;;;4.70;2.90;;;;;;;16.54;67.92;101677.91;5019693;28;97148;-76
2023/10/10 09:18:12;;;;;;;4.47;4.07;;;;;;;16.54;67.77;101677.91;5023688;27;97055;-76
2023/10/10 09:20:38;;;;;;;5.87;3.53;;;;;;;16.56;68.00;101686.50;5020211;27;99006;-77
2023/10/10 09:23:23;;;;;;;4.87;3.70;;;;;;;16.60;68.05;101693.31;5022520;27;96830;-76
2023/10/10 09:26:09;;;;;;;3.97;3.60;;;;;;;16.67;67.87;101680.75;5021265;28;97039;-75
2023/10/10 09:29:03;;;;;;;3.80;3.50;;;;;;;16.67;67.94;101669.56;5019328;27;100251;-76
2023/10/10 09:31:32;;;;;;;3.90;3.07;;;;;;;16.68;67.87;101682.25;5021318;27;97437;-76
2023/10/10 09:34:02;;;;;;;4.43;3.17;;;;;;;16.70;67.77;101674.09;5020923;28;96943;-76
2023/10/10 09:36:27;;;;;;;4.43;3.10;;;;;;;16.71;67.86;101672.81;5019946;28;97420;-76
2023/10/10 09:38:57;;;;;;;3.70;3.30;;;;;;;16.71;67.79;101670.03;5021595;28;97524;-76
2023/10/10 09:50:00;;;;;;;3.43;3.10;;;;;;;16.88;67.54;101680.91;5020616;28;96797;-76
2023/10/10 09:58:00;;;;;;;3.50;3.20;;;;;;;17.17;67.56;101677.78;5021971;28;96737;-76
2023/10/10 10:05:58;;;;;;;4.30;3.40;;;;;;;17.43;67.24;101657.44;5019669;28;97083;-76
2023/10/10 10:08:37;;;;;;;6.87;3.40;;;;;;;17.50;67.13;101653.97;5021648;28;97575;-76
2023/10/10 10:11:33;;;;;;;4.97;2.77;;;;;;;17.54;66.91;101664.88;5021105;27;97558;-77
2023/10/10 10:14:17;;;;;;;3.50;3.10;;;;;;;17.55;66.64;101655.94;5021977;28;96912;-76
2023/10/10 10:17:18;;;;;;;4.93;3.20;;;;;;;17.52;65.99;101651.41;5021691;28;97114;-77
2023/10/10 10:19:45;;;;;;;4.87;3.57;;;;;;;17.55;66.67;101655.94;5011857;28;97001;-76
2023/10/10 10:22:17;;;;;;;4.47;3.60;;;;;;;17.54;66.31;101657.22;5019241;28;100466;-76
2023/10/10 10:24:44;;;;;;;5.97;3.60;;;;;;;17.59;66.26;101667.56;5021453;28;97303;-77
2023/10/10 10:29:53;;;;;;;3.40;3.10;;;;;;;17.63;66.19;101664.41;5020702;28;96824;-76
2023/10/10 10:32:19;;;;;;;3.40;3.10;;;;;;;17.67;66.02;101650.84;5021189;28;97380;-76
2023/10/10 10:34:45;;;;;;;3.43;2.93;;;;;;;17.73;65.94;101652.22;5018244;27;99388;-76
2023/10/10 10:37:20;;;;;;;3.93;3.03;;;;;;;17.76;65.47;101658.78;5018291;28;97413;-75
2023/10/10 10:42:38;;;;;;;3.77;2.97;;;;;;;17.87;65.79;101652.94;5020151;28;96832;-76
2023/10/10 10:45:36;;;;;;;4.03;3.63;;;;;;;17.92;64.56;101650.03;5020984;28;97253;-76
2023/10/10 10:48:30;;;;;;;4.33;2.90;;;;;;;17.93;64.84;101637.50;5020388;28;97490;-76
2023/10/10 10:51:32;;;;;;;3.67;3.37;;;;;;;18.03;65.32;101646.97;5018815;27;97450;-76
2023/10/10 10:54:00;;;;;;;4.17;3.70;;;;;;;18.09;65.16;101630.00;5020001;27;98402;-76
2023/10/10 10:59:20;;;;;;;5.97;3.80;;;;;;;18.17;64.67;101639.22;5020386;28;97237;-76
2023/10/10 11:01:57;;;;;;;7.33;3.70;;;;;;;18.17;64.96;101625.97;5021387;28;98329;-75
2023/10/10 11:04:43;;;;;;;4.90;3.67;;;;;;;18.15;64.98;101617.38;5019981;28;98456;-76
2023/10/10 11:07:08;;;;;;;5.90;4.00;;;;;;;18.21;64.87;101622.09;5020605;28;96854;-76
2023/10/10 11:09:37;;;;;;;4.40;3.70;;;;;;;18.22;64.91;101621.53;5020039;28;96892;-76
2023/10/10 11:12:05;;;;;;;6.97;4.23;;;;;;;18.28;64.80;101605.34;5018124;27;97026;-76
2023/10/10 11:14:32;;;;;;;5.83;4.23;;;;;;;18.40;64.78;101620.63;5019278;28;97870;-76
2023/10/10 11:16:58;;;;;;;4.17;3.77;;;;;;;18.52;64.38;101616.22;5019047;28;97594;-76
2023/10/10 11:22:01;;;;;;;4.00;3.40;;;;;;;18.60;64.20;101597.41;5020751;28;97395;-76
2023/10/10 11:24:31;;;;;;;5.00;4.00;;;;;;;18.54;63.74;101588.38;5018920;28;97561;-76
2023/10/10 11:27:29;;;;;;;4.97;3.67;;;;;;;18.51;64.16;101583.88;5017889;27;99284;-76
2023/10/10 11:29:50;;;;;;;5.73;3.20;;;;;;;18.46;64.23;101579.19;5016938;27;97481;-75
2023/10/10 11:32:29;;;;;;;7.40;4.40;;;;;;;18.45;64.01;101583.25;5021149;28;97183;-76
2023/10/10 11:34:56;;;;;;;4.77;4.30;;;;;;;18.39;64.40;101582.66;5018936;28;99739;-77
2023/10/10 11:37:26;;;;;;;6.70;5.00;;;;;;;18.34;64.44;101577.22;5019456;28;97146;-76
2023/10/10 11:43:11;;;;;;;5.90;4.77;;;;;;;18.17;64.51;101567.16;5020151;28;97194;-77
2023/10/10 11:45:49;;;;;;;5.70;4.90;;;;;;;18.14;64.84;101567.50;5035435;27;103362;-77
2023/10/10 11:48:15;;;;;;;5.60;5.10;;;;;;;18.13;64.95;101566.00;5025045;27;97882;-76
2023/10/10 11:50:52;;;;;;;5.60;5.03;;;;;;;18.11;65.26;101571.41;5022254;28;97182;-77
2023/10/10 11:53:23;;;;;;;5.70;5.03;;;;;;;18.10;65.35;101558.72;5021634;28;97580;-77
2023/10/10 11:55:49;;;;;;;7.10;4.80;;;;;;;18.12;65.46;101567.31;5022892;28;97024;-77
2023/10/10 11:58:17;;;;;;;8.67;6.60;;;;;;;18.12;65.70;101573.66;5022459;28;97139;-77
2023/10/10 12:01:03;;;;;;;7.17;5.40;;;;;;;18.14;65.58;101561.91;5024324;27;97328;-77
2023/10/10 12:03:41;;;;;;;6.70;6.10;;;;;;;18.13;65.72;101563.97;5022739;28;97313;-77
2023/10/10 12:06:14;;;;;;;6.20;5.20;;;;;;;18.14;65.94;101559.84;5022908;28;96986;-76
2023/10/10 12:08:48;;;;;;;7.57;5.83;;;;;;;18.13;66.14;101566.00;5018248;27;99684;-76
2023/10/10 12:11:20;;;;;;;5.87;5.27;;;;;;;18.10;66.14;101539.09;5024831;28;96822;-77
2023/10/10 12:13:47;;;;;;;7.67;6.87;;;;;;;18.07;66.29;101531.78;5021921;28;96846;-76
2023/10/10 12:16:13;;;;;;;7.60;6.90;;;;;;;18.08;66.44;101530.47;5022779;28;97299;-77
2023/10/10 12:18:55;;;;;;;9.23;7.33;;;;;;;18.08;66.48;101522.81;5027567;27;100594;-77
2023/10/10 12:21:21;;;;;;;7.70;6.97;;;;;;;18.06;66.50;101521.88;5021810;28;97142;-77
2023/10/10 12:23:52;;;;;;;7.77;6.97;;;;;;;18.05;66.53;101523.19;5023761;28;97067;-78
2023/10/10 12:26:18;;;;;;;9.67;8.00;;;;;;;18.05;66.65;101520.38;5022433;28;97478;-76
2023/10/10 12:28:44;;;;;;;8.73;7.83;;;;;;;18.02;66.61;101527.84;5020599;28;99384;-77
2023/10/10 12:31:15;;;;;;;9.63;8.17;;;;;;;18.03;66.69;101534.19;5022042;27;97004;-77
2023/10/10 12:33:41;;;;;;;9.43;8.33;;;;;;;18.01;66.83;101520.72;5023182;27;97462;-77
2023/10/10 12:36:10;;;;;;;11.50;8.20;;;;;;;18.06;66.95;101513.47;5023819;27;96837;-76
2023/10/10 12:38:37;;;;;;;11.13;8.90;;;;;;;18.20;67.24;101520.50;5021989;28;98347;-77
2023/10/10 12:41:05;;;;;;;11.47;8.90;;;;;;;18.57;66.82;101506.00;5037309;27;97139;-76
2023/10/10 12:43:30;;;;;;;13.30;9.73;;;;;;;18.99;66.48;101503.75;5020339;27;96908;-76
2023/10/10 12:45:56;;;;;;;12.87;9.63;;;;;;;19.18;65.84;101495.06;5022423;27;97849;-76
2023/10/10 12:48:21;;;;;;;10.87;9.20;;;;;;;19.24;65.80;101475.97;5023297;28;97810;-76
2023/10/10 12:50:48;;;;;;;11.40;9.10;;;;;;;19.15;65.79;101468.13;5020308;28;96683;-76
2023/10/10 12:53:19;;;;;;;10.90;9.47;;;;;;;19.08;65.86;101474.44;5023687;28;96781;-76
2023/10/10 12:55:49;;;;;;;11.80;10.00;;;;;;;19.01;66.09;101469.53;5020749;27;97244;-76
2023/10/10 12:58:16;;;;;;;11.07;8.97;;;;;;;19.02;66.38;101476.66;5037278;27;99047;-76
2023/10/10 13:00:51;;;;;;;13.93;9.90;;;;;;;19.17;66.33;101483.06;5020434;28;97104;-77
2023/10/10 13:03:22;;;;;;;11.20;8.57;;;;;;;19.48;65.93;101483.88;5021142;27;97033;-77
2023/10/10 13:05:50;;;;;;;11.93;9.67;;;;;;;19.78;65.42;101483.94;5021706;28;98042;-76
2023/10/10 13:08:17;;;;;;;11.30;9.50;;;;;;;19.86;65.08;101470.66;5022497;28;97736;-76
2023/10/10 13:10:43;;;;;;;12.67;9.63;;;;;;;19.83;65.06;101477.38;5021929;28;97307;-77
2023/10/10 13:13:09;;;;;;;10.97;9.77;;;;;;;19.81;65.35;101482.03;5021592;27;97178;-77
2023/10/10 13:15:49;;;;;;;11.93;9.23;;;;;;;19.86;65.18;101476.28;5020320;27;99739;-76
2023/10/10 13:18:20;;;;;;;13.80;8.43;;;;;;;19.90;65.28;101450.59;5015915;28;97899;-76
2023/10/10 13:20:50;;;;;;;11.13;9.70;;;;;;;19.84;65.04;101459.25;5021762;28;96770;-76
2023/10/10 13:23:18;;;;;;;16.33;10.30;;;;;;;19.77;64.92;101448.72;5023206;27;97108;-77
2023/10/10 13:25:44;;;;;;;10.17;8.67;;;;;;;19.71;65.29;101450.97;5021163;28;96826;-76
2023/10/10 13:28:12;;;;;;;9.93;8.70;;;;;;;19.70;65.51;101440.31;5021895;28;97020;-77
2023/10/10 13:30:38;;;;;;;10.07;8.27;;;;;;;19.66;65.39;101439.91;5011408;28;97142;-77
2023/10/10 13:33:06;;;;;;;12.57;9.10;;;;;;;19.59;65.59;101436.56;5021468;28;97114;-77
2023/10/10 13:35:32;;;;;;;11.87;9.30;;;;;;;19.57;65.63;101436.38;5018213;28;100719;-77
2023/10/10 13:37:57;;;;;;;9.90;7.90;;;;;;;19.57;65.77;101453.22;5015355;28;99408;-77
2023/10/10 13:40:22;;;;;;;11.23;8.60;;;;;;;19.55;65.91;101447.41;5020564;28;97873;-75
2023/10/10 13:42:48;;;;;;;10.73;8.70;;;;;;;19.55;65.53;101424.19;5020404;27;97276;-77
2023/10/10 13:45:19;;;;;;;11.90;9.20;;;;;;;19.54;65.93;101431.13;5020702;27;97640;-77
2023/10/10 13:47:48;;;;;;;11.70;8.83;;;;;;;19.53;65.92;101447.22;5018096;27;100599;-77
2023/10/10 13:50:28;;;;;;;12.00;8.83;;;;;;;19.59;65.92;101433.00;5022811;27;97537;-76
2023/10/10 13:52:53;;;;;;;10.40;8.87;;;;;;;19.61;65.70;101442.34;5022128;28;97225;-76
2023/10/10 13:55:19;;;;;;;12.00;9.40;;;;;;;19.67;65.68;101442.19;5019698;28;101104;-77
2023/10/10 13:57:44;;;;;;;12.93;8.80;;;;;;;19.68;65.52;101435.25;5020966;27;97547;-77
2023/10/10 14:00:29;;;;;;;12.60;9.17;;;;;;;19.70;65.64;101437.50;5022191;27;96967;-77
2023/10/10 14:03:03;;;;;;;12.20;8.70;;;;;;;19.72;65.68;101444.03;5019779;27;97492;-77
2023/10/10 14:05:33;;;;;;;12.70;9.13;;;;;;;19.72;65.39;101441.22;5021097;28;97946;-77
2023/10/10 14:07:59;;;;;;;11.13;9.40;;;;;;;19.71;65.05;101436.94;5021582;28;98304;-77
2023/10/10 14:10:24;;;;;;;12.33;9.20;;;;;;;19.70;65.07;101449.47;5021709;27;96743;-76
2023/10/10 14:12:50;;;;;;;13.53;9.27;;;;;;;19.69;65.22;101439.56;5020711;28;97287;-77
2023/10/10 14:15:18;;;;;;;12.00;8.40;;;;;;;19.68;65.49;101452.09;5020579;28;97513;-77
2023/10/10 14:17:46;;;;;;;14.00;9.47;;;;;;;19.64;65.49;101460.13;5020069;28;96967;-77
2023/10/10 14:20:21;;;;;;;12.60;8.33;;;;;;;19.59;65.56;101456.19;5020239;28;97629;-77
2023/10/10 14:22:49;;;;;;;12.10;8.17;;;;;;;19.60;65.64;101466.13;5021961;28;96756;-77
2023/10/10 14:25:15;;;;;;;10.70;7.97;;;;;;;19.59;65.65;101447.03;5021839;27;97263;-77
2023/10/10 14:27:43;;;;;;;12.50;9.40;;;;;;;19.54;65.95;101437.47;5019579;28;97133;-77
2023/10/10 14:30:20;;;;;;;10.80;7.63;;;;;;;19.55;65.94;101450.22;5020545;28;96929;-77
2023/10/10 14:32:54;;;;;;;9.77;7.43;;;;;;;19.53;66.13;101429.63;5019362;27;96983;-77
2023/10/10 14:35:23;;;;;;;11.40;7.50;;;;;;;19.54;66.01;101431.13;5021562;28;97314;-76
2023/10/10 14:37:50;;;;;;;10.33;8.53;;;;;;;19.52;65.93;101433.75;5018592;28;97129;-77